sensor_id;sensor_type;location;lat;lon;timestamp;P1;durP1;ratioP1;P2;durP2;ratioP2
21661;SDS011;10992;48.170;8.596;2022-12-18T00:01:25;67.68;;;34.08;;
21661;SDS011;10992;48.170;8.596;2022-12-18T00:03:54;71.28;;;34.60;;
21661;SDS011;10992;48.170;8.596;2022-12-18T00:06:22;69.10;;;34.72;;
21661;SDS011;10992;48.170;8.596;2022-12-18T00:08:51;69.78;;;34.83;;
21661;SDS011;10992;48.170;8.596;2022-12-18T00:11:19;65.32;;;35.10;;
21661;SDS011;10992;48.170;8.596;2022-12-18T00:13:48;69.10;;;34.63;;
21661;SDS011;10992;48.170;8.596;2022-12-18T00:16:16;67.32;;;34.85;;
21661;SDS011;10992;48.170;8.596;2022-12-18T00:18:49;60.53;;;32.35;;
21661;SDS011;10992;48.170;8.596;2022-12-18T00:21:17;67.85;;;33.05;;
21661;SDS011;10992;48.170;8.596;2022-12-18T00:23:46;64.60;;;32.53;;
21661;SDS011;10992;48.170;8.596;2022-12-18T00:26:15;67.72;;;33.38;;
21661;SDS011;10992;48.170;8.596;2022-12-18T00:28:48;65.07;;;33.22;;
21661;SDS011;10992;48.170;8.596;2022-12-18T00:31:16;57.05;;;31.65;;
21661;SDS011;10992;48.170;8.596;2022-12-18T00:33:46;54.80;;;29.40;;
21661;SDS011;10992;48.170;8.596;2022-12-18T00:36:19;53.30;;;29.35;;
21661;SDS011;10992;48.170;8.596;2022-12-18T00:38:50;45.83;;;27.52;;
21661;SDS011;10992;48.170;8.596;2022-12-18T00:41:17;50.80;;;28.08;;
21661;SDS011;10992;48.170;8.596;2022-12-18T00:44:06;53.70;;;29.40;;
21661;SDS011;10992;48.170;8.596;2022-12-18T00:46:33;57.83;;;29.67;;
21661;SDS011;10992;48.170;8.596;2022-12-18T00:49:00;53.30;;;30.98;;
21661;SDS011;10992;48.170;8.596;2022-12-18T00:51:28;50.65;;;28.63;;
21661;SDS011;10992;48.170;8.596;2022-12-18T00:53:55;52.40;;;27.33;;
21661;SDS011;10992;48.170;8.596;2022-12-18T00:56:22;55.20;;;30.33;;
21661;SDS011;10992;48.170;8.596;2022-12-18T00:58:49;64.25;;;29.73;;
21661;SDS011;10992;48.170;8.596;2022-12-18T01:01:17;59.10;;;30.08;;
21661;SDS011;10992;48.170;8.596;2022-12-18T01:03:44;63.17;;;30.58;;
21661;SDS011;10992;48.170;8.596;2022-12-18T01:06:13;64.32;;;30.10;;
21661;SDS011;10992;48.170;8.596;2022-12-18T01:08:41;58.88;;;30.58;;
21661;SDS011;10992;48.170;8.596;2022-12-18T01:11:12;56.28;;;29.08;;
21661;SDS011;10992;48.170;8.596;2022-12-18T01:13:41;54.15;;;28.67;;
21661;SDS011;10992;48.170;8.596;2022-12-18T01:16:13;63.83;;;29.90;;
21661;SDS011;10992;48.170;8.596;2022-12-18T01:18:42;65.15;;;30.67;;
21661;SDS011;10992;48.170;8.596;2022-12-18T01:21:11;57.42;;;29.13;;
21661;SDS011;10992;48.170;8.596;2022-12-18T01:23:40;61.25;;;29.35;;
21661;SDS011;10992;48.170;8.596;2022-12-18T01:26:09;62.08;;;29.83;;
21661;SDS011;10992;48.170;8.596;2022-12-18T01:28:38;56.90;;;28.92;;
21661;SDS011;10992;48.170;8.596;2022-12-18T01:33:45;52.97;;;27.23;;
21661;SDS011;10992;48.170;8.596;2022-12-18T01:36:14;61.90;;;29.40;;
21661;SDS011;10992;48.170;8.596;2022-12-18T01:38:43;62.65;;;30.02;;
21661;SDS011;10992;48.170;8.596;2022-12-18T01:41:09;57.15;;;29.55;;
21661;SDS011;10992;48.170;8.596;2022-12-18T01:43:44;57.00;;;28.30;;
21661;SDS011;10992;48.170;8.596;2022-12-18T01:46:18;64.93;;;29.63;;
21661;SDS011;10992;48.170;8.596;2022-12-18T01:48:47;60.78;;;28.42;;
21661;SDS011;10992;48.170;8.596;2022-12-18T01:51:16;66.70;;;30.33;;
21661;SDS011;10992;48.170;8.596;2022-12-18T01:53:43;63.28;;;27.60;;
21661;SDS011;10992;48.170;8.596;2022-12-18T01:56:12;60.42;;;28.85;;
21661;SDS011;10992;48.170;8.596;2022-12-18T01:58:45;64.15;;;29.83;;
21661;SDS011;10992;48.170;8.596;2022-12-18T02:01:21;60.17;;;29.42;;
21661;SDS011;10992;48.170;8.596;2022-12-18T02:03:50;64.97;;;29.25;;
21661;SDS011;10992;48.170;8.596;2022-12-18T02:14:45;67.50;;;31.48;;
21661;SDS011;10992;48.170;8.596;2022-12-18T02:17:25;64.07;;;29.13;;
21661;SDS011;10992;48.170;8.596;2022-12-18T02:28:56;58.85;;;28.02;;
21661;SDS011;10992;48.170;8.596;2022-12-18T02:31:26;64.82;;;28.35;;
21661;SDS011;10992;48.170;8.596;2022-12-18T02:33:58;58.25;;;30.17;;
21661;SDS011;10992;48.170;8.596;2022-12-18T02:36:33;55.60;;;28.40;;
21661;SDS011;10992;48.170;8.596;2022-12-18T02:39:03;59.75;;;30.52;;
21661;SDS011;10992;48.170;8.596;2022-12-18T02:41:35;61.17;;;29.05;;
21661;SDS011;10992;48.170;8.596;2022-12-18T02:44:07;65.85;;;29.02;;
21661;SDS011;10992;48.170;8.596;2022-12-18T02:46:39;61.92;;;28.27;;
21661;SDS011;10992;48.170;8.596;2022-12-18T02:57:24;58.85;;;27.00;;
21661;SDS011;10992;48.170;8.596;2022-12-18T03:02:46;59.55;;;27.40;;
21661;SDS011;10992;48.170;8.596;2022-12-18T03:05:29;67.95;;;28.58;;
21661;SDS011;10992;48.170;8.596;2022-12-18T03:08:03;56.67;;;27.35;;
21661;SDS011;10992;48.170;8.596;2022-12-18T03:10:38;62.42;;;26.88;;
21661;SDS011;10992;48.170;8.596;2022-12-18T03:13:23;62.45;;;26.08;;
21661;SDS011;10992;48.170;8.596;2022-12-18T03:15:58;61.38;;;26.92;;
21661;SDS011;10992;48.170;8.596;2022-12-18T03:18:47;56.25;;;26.17;;
21661;SDS011;10992;48.170;8.596;2022-12-18T03:21:23;61.63;;;26.70;;
21661;SDS011;10992;48.170;8.596;2022-12-18T03:23:56;59.22;;;26.60;;
21661;SDS011;10992;48.170;8.596;2022-12-18T03:26:25;61.55;;;27.42;;
21661;SDS011;10992;48.170;8.596;2022-12-18T03:29:08;59.15;;;27.30;;
21661;SDS011;10992;48.170;8.596;2022-12-18T03:32:10;61.50;;;26.42;;
21661;SDS011;10992;48.170;8.596;2022-12-18T03:34:42;60.90;;;26.90;;
21661;SDS011;10992;48.170;8.596;2022-12-18T03:37:15;56.95;;;26.23;;
21661;SDS011;10992;48.170;8.596;2022-12-18T03:39:41;66.25;;;26.65;;
21661;SDS011;10992;48.170;8.596;2022-12-18T03:47:40;60.58;;;27.67;;
21661;SDS011;10992;48.170;8.596;2022-12-18T03:50:20;67.95;;;29.45;;
21661;SDS011;10992;48.170;8.596;2022-12-18T03:52:55;62.72;;;26.13;;
21661;SDS011;10992;48.170;8.596;2022-12-18T03:55:27;70.20;;;28.15;;
21661;SDS011;10992;48.170;8.596;2022-12-18T03:58:03;72.15;;;30.67;;
21661;SDS011;10992;48.170;8.596;2022-12-18T04:00:45;63.85;;;28.10;;
21661;SDS011;10992;48.170;8.596;2022-12-18T04:03:16;73.47;;;29.13;;
21661;SDS011;10992;48.170;8.596;2022-12-18T04:05:51;71.18;;;30.20;;
21661;SDS011;10992;48.170;8.596;2022-12-18T04:08:20;73.40;;;28.95;;
21661;SDS011;10992;48.170;8.596;2022-12-18T04:10:59;64.10;;;26.35;;
21661;SDS011;10992;48.170;8.596;2022-12-18T04:13:32;74.30;;;30.58;;
21661;SDS011;10992;48.170;8.596;2022-12-18T04:16:05;66.82;;;27.67;;
21661;SDS011;10992;48.170;8.596;2022-12-18T04:18:33;75.10;;;30.27;;
21661;SDS011;10992;48.170;8.596;2022-12-18T04:21:01;70.65;;;27.80;;
21661;SDS011;10992;48.170;8.596;2022-12-18T04:23:28;69.10;;;29.67;;
21661;SDS011;10992;48.170;8.596;2022-12-18T04:25:57;66.68;;;29.30;;
21661;SDS011;10992;48.170;8.596;2022-12-18T04:28:43;59.63;;;27.35;;
21661;SDS011;10992;48.170;8.596;2022-12-18T04:31:11;66.53;;;29.88;;
21661;SDS011;10992;48.170;8.596;2022-12-18T04:33:38;70.63;;;29.30;;
21661;SDS011;10992;48.170;8.596;2022-12-18T04:36:06;64.72;;;28.60;;
21661;SDS011;10992;48.170;8.596;2022-12-18T04:38:34;64.22;;;28.38;;
21661;SDS011;10992;48.170;8.596;2022-12-18T04:41:06;64.85;;;27.95;;
21661;SDS011;10992;48.170;8.596;2022-12-18T04:43:35;69.75;;;28.17;;
21661;SDS011;10992;48.170;8.596;2022-12-18T04:46:05;70.15;;;28.77;;
21661;SDS011;10992;48.170;8.596;2022-12-18T04:48:34;70.53;;;29.23;;
21661;SDS011;10992;48.170;8.596;2022-12-18T04:51:01;62.67;;;28.10;;
21661;SDS011;10992;48.170;8.596;2022-12-18T04:53:29;58.70;;;25.08;;
21661;SDS011;10992;48.170;8.596;2022-12-18T04:56:03;68.82;;;28.70;;
21661;SDS011;10992;48.170;8.596;2022-12-18T04:58:30;72.68;;;29.58;;
21661;SDS011;10992;48.170;8.596;2022-12-18T05:00:56;62.00;;;28.25;;
21661;SDS011;10992;48.170;8.596;2022-12-18T05:03:23;70.28;;;29.95;;
21661;SDS011;10992;48.170;8.596;2022-12-18T05:05:50;68.53;;;29.88;;
21661;SDS011;10992;48.170;8.596;2022-12-18T05:08:17;65.10;;;29.13;;
21661;SDS011;10992;48.170;8.596;2022-12-18T05:10:45;69.85;;;29.40;;
21661;SDS011;10992;48.170;8.596;2022-12-18T05:13:12;76.13;;;31.55;;
21661;SDS011;10992;48.170;8.596;2022-12-18T05:15:38;70.13;;;29.52;;
21661;SDS011;10992;48.170;8.596;2022-12-18T05:18:05;66.68;;;30.27;;
21661;SDS011;10992;48.170;8.596;2022-12-18T05:20:33;66.57;;;27.83;;
21661;SDS011;10992;48.170;8.596;2022-12-18T05:22:59;70.85;;;30.48;;
21661;SDS011;10992;48.170;8.596;2022-12-18T05:25:26;81.97;;;30.67;;
21661;SDS011;10992;48.170;8.596;2022-12-18T05:27:53;71.28;;;29.48;;
21661;SDS011;10992;48.170;8.596;2022-12-18T05:30:20;74.95;;;31.20;;
21661;SDS011;10992;48.170;8.596;2022-12-18T05:32:47;73.53;;;31.40;;
21661;SDS011;10992;48.170;8.596;2022-12-18T05:35:14;77.97;;;30.85;;
21661;SDS011;10992;48.170;8.596;2022-12-18T05:37:40;70.15;;;31.00;;
21661;SDS011;10992;48.170;8.596;2022-12-18T05:40:09;73.85;;;29.45;;
21661;SDS011;10992;48.170;8.596;2022-12-18T05:42:36;72.97;;;30.48;;
21661;SDS011;10992;48.170;8.596;2022-12-18T05:45:04;72.47;;;30.80;;
21661;SDS011;10992;48.170;8.596;2022-12-18T05:47:32;79.10;;;33.22;;
21661;SDS011;10992;48.170;8.596;2022-12-18T05:49:58;82.30;;;30.50;;
21661;SDS011;10992;48.170;8.596;2022-12-18T05:52:26;82.03;;;32.95;;
21661;SDS011;10992;48.170;8.596;2022-12-18T05:54:53;81.72;;;32.28;;
21661;SDS011;10992;48.170;8.596;2022-12-18T05:57:19;79.75;;;30.30;;
21661;SDS011;10992;48.170;8.596;2022-12-18T05:59:46;80.55;;;32.80;;
21661;SDS011;10992;48.170;8.596;2022-12-18T06:02:13;80.03;;;32.50;;
21661;SDS011;10992;48.170;8.596;2022-12-18T06:04:40;92.30;;;32.55;;
21661;SDS011;10992;48.170;8.596;2022-12-18T06:07:07;85.97;;;31.50;;
21661;SDS011;10992;48.170;8.596;2022-12-18T06:09:34;79.15;;;33.33;;
21661;SDS011;10992;48.170;8.596;2022-12-18T06:12:01;90.10;;;34.08;;
21661;SDS011;10992;48.170;8.596;2022-12-18T06:14:28;88.28;;;32.55;;
21661;SDS011;10992;48.170;8.596;2022-12-18T06:16:55;80.65;;;32.33;;
21661;SDS011;10992;48.170;8.596;2022-12-18T06:19:22;70.15;;;30.08;;
21661;SDS011;10992;48.170;8.596;2022-12-18T06:21:49;83.15;;;33.78;;
21661;SDS011;10992;48.170;8.596;2022-12-18T06:24:16;82.38;;;31.17;;
21661;SDS011;10992;48.170;8.596;2022-12-18T06:26:43;86.25;;;35.33;;
21661;SDS011;10992;48.170;8.596;2022-12-18T06:29:10;79.78;;;29.38;;
21661;SDS011;10992;48.170;8.596;2022-12-18T06:31:37;75.82;;;31.23;;
21661;SDS011;10992;48.170;8.596;2022-12-18T06:34:04;77.18;;;32.85;;
21661;SDS011;10992;48.170;8.596;2022-12-18T06:36:31;83.70;;;34.00;;
21661;SDS011;10992;48.170;8.596;2022-12-18T06:38:58;86.95;;;34.10;;
21661;SDS011;10992;48.170;8.596;2022-12-18T06:41:25;80.93;;;32.42;;
21661;SDS011;10992;48.170;8.596;2022-12-18T06:43:52;77.25;;;30.27;;
21661;SDS011;10992;48.170;8.596;2022-12-18T06:46:25;84.30;;;32.35;;
21661;SDS011;10992;48.170;8.596;2022-12-18T06:48:52;86.13;;;34.20;;
21661;SDS011;10992;48.170;8.596;2022-12-18T06:51:20;87.85;;;35.35;;
21661;SDS011;10992;48.170;8.596;2022-12-18T06:53:48;80.55;;;30.73;;
21661;SDS011;10992;48.170;8.596;2022-12-18T06:56:15;83.93;;;31.83;;
21661;SDS011;10992;48.170;8.596;2022-12-18T06:58:42;89.10;;;32.20;;
21661;SDS011;10992;48.170;8.596;2022-12-18T07:01:10;81.20;;;31.77;;
21661;SDS011;10992;48.170;8.596;2022-12-18T07:03:38;90.80;;;32.15;;
21661;SDS011;10992;48.170;8.596;2022-12-18T07:06:13;84.68;;;33.42;;
21661;SDS011;10992;48.170;8.596;2022-12-18T07:08:41;80.07;;;31.73;;
21661;SDS011;10992;48.170;8.596;2022-12-18T07:11:08;78.90;;;30.85;;
21661;SDS011;10992;48.170;8.596;2022-12-18T07:13:34;78.55;;;27.98;;
21661;SDS011;10992;48.170;8.596;2022-12-18T07:16:09;82.65;;;31.67;;
21661;SDS011;10992;48.170;8.596;2022-12-18T07:18:47;80.82;;;31.58;;
21661;SDS011;10992;48.170;8.596;2022-12-18T07:21:16;76.00;;;30.35;;
21661;SDS011;10992;48.170;8.596;2022-12-18T07:23:45;82.55;;;30.75;;
21661;SDS011;10992;48.170;8.596;2022-12-18T07:26:16;77.78;;;31.67;;
21661;SDS011;10992;48.170;8.596;2022-12-18T07:28:44;81.13;;;32.72;;
21661;SDS011;10992;48.170;8.596;2022-12-18T07:31:12;85.18;;;32.97;;
21661;SDS011;10992;48.170;8.596;2022-12-18T07:33:42;86.35;;;30.17;;
21661;SDS011;10992;48.170;8.596;2022-12-18T07:36:10;87.90;;;31.88;;
21661;SDS011;10992;48.170;8.596;2022-12-18T07:38:37;79.35;;;31.23;;
21661;SDS011;10992;48.170;8.596;2022-12-18T07:41:08;71.03;;;28.90;;
21661;SDS011;10992;48.170;8.596;2022-12-18T07:43:38;68.25;;;27.27;;
21661;SDS011;10992;48.170;8.596;2022-12-18T07:46:07;61.75;;;28.00;;
21661;SDS011;10992;48.170;8.596;2022-12-18T07:48:35;69.78;;;28.73;;
21661;SDS011;10992;48.170;8.596;2022-12-18T07:51:03;67.53;;;28.13;;
21661;SDS011;10992;48.170;8.596;2022-12-18T07:53:32;70.05;;;29.55;;
21661;SDS011;10992;48.170;8.596;2022-12-18T07:56:01;68.88;;;31.30;;
21661;SDS011;10992;48.170;8.596;2022-12-18T07:58:53;84.30;;;30.58;;
21661;SDS011;10992;48.170;8.596;2022-12-18T08:01:20;79.43;;;30.98;;
21661;SDS011;10992;48.170;8.596;2022-12-18T08:03:47;76.03;;;31.40;;
21661;SDS011;10992;48.170;8.596;2022-12-18T08:06:16;80.22;;;30.13;;
21661;SDS011;10992;48.170;8.596;2022-12-18T08:08:43;75.68;;;28.05;;
21661;SDS011;10992;48.170;8.596;2022-12-18T08:11:10;81.88;;;32.08;;
21661;SDS011;10992;48.170;8.596;2022-12-18T08:13:36;89.03;;;32.17;;
21661;SDS011;10992;48.170;8.596;2022-12-18T08:16:05;78.53;;;32.45;;
21661;SDS011;10992;48.170;8.596;2022-12-18T08:18:33;71.88;;;29.98;;
21661;SDS011;10992;48.170;8.596;2022-12-18T08:21:10;79.43;;;31.15;;
21661;SDS011;10992;48.170;8.596;2022-12-18T08:23:38;80.20;;;31.83;;
21661;SDS011;10992;48.170;8.596;2022-12-18T08:26:08;78.05;;;30.17;;
21661;SDS011;10992;48.170;8.596;2022-12-18T08:28:36;79.72;;;33.00;;
21661;SDS011;10992;48.170;8.596;2022-12-18T08:31:03;74.75;;;29.52;;
21661;SDS011;10992;48.170;8.596;2022-12-18T08:33:30;85.75;;;34.47;;
21661;SDS011;10992;48.170;8.596;2022-12-18T08:35:58;78.55;;;32.50;;
21661;SDS011;10992;48.170;8.596;2022-12-18T08:38:25;83.35;;;36.58;;
21661;SDS011;10992;48.170;8.596;2022-12-18T08:40:59;84.55;;;34.08;;
21661;SDS011;10992;48.170;8.596;2022-12-18T08:43:26;82.03;;;30.73;;
21661;SDS011;10992;48.170;8.596;2022-12-18T08:46:12;73.63;;;29.88;;
21661;SDS011;10992;48.170;8.596;2022-12-18T08:48:42;79.53;;;32.10;;
21661;SDS011;10992;48.170;8.596;2022-12-18T08:51:10;75.85;;;30.67;;
21661;SDS011;10992;48.170;8.596;2022-12-18T08:53:37;75.75;;;32.72;;
21661;SDS011;10992;48.170;8.596;2022-12-18T08:56:05;79.95;;;31.48;;
21661;SDS011;10992;48.170;8.596;2022-12-18T08:58:32;70.38;;;29.45;;
21661;SDS011;10992;48.170;8.596;2022-12-18T09:01:02;70.07;;;31.08;;
21661;SDS011;10992;48.170;8.596;2022-12-18T09:03:32;77.70;;;31.75;;
21661;SDS011;10992;48.170;8.596;2022-12-18T09:05:59;74.18;;;32.50;;
21661;SDS011;10992;48.170;8.596;2022-12-18T09:08:26;73.80;;;31.63;;
21661;SDS011;10992;48.170;8.596;2022-12-18T09:10:53;69.03;;;29.45;;
21661;SDS011;10992;48.170;8.596;2022-12-18T09:13:21;74.32;;;31.60;;
21661;SDS011;10992;48.170;8.596;2022-12-18T09:15:49;76.90;;;32.65;;
21661;SDS011;10992;48.170;8.596;2022-12-18T09:18:18;58.95;;;26.30;;
21661;SDS011;10992;48.170;8.596;2022-12-18T09:20:47;70.43;;;31.98;;
21661;SDS011;10992;48.170;8.596;2022-12-18T09:23:14;66.00;;;28.00;;
21661;SDS011;10992;48.170;8.596;2022-12-18T09:25:41;64.93;;;30.00;;
21661;SDS011;10992;48.170;8.596;2022-12-18T09:28:14;59.13;;;25.33;;
21661;SDS011;10992;48.170;8.596;2022-12-18T09:30:51;68.05;;;29.23;;
21661;SDS011;10992;48.170;8.596;2022-12-18T09:33:19;76.45;;;31.10;;
21661;SDS011;10992;48.170;8.596;2022-12-18T09:35:46;67.70;;;29.50;;
21661;SDS011;10992;48.170;8.596;2022-12-18T09:38:14;66.32;;;28.88;;
21661;SDS011;10992;48.170;8.596;2022-12-18T09:40:43;64.63;;;28.73;;
21661;SDS011;10992;48.170;8.596;2022-12-18T09:43:15;72.45;;;31.00;;
21661;SDS011;10992;48.170;8.596;2022-12-18T09:45:47;73.32;;;32.85;;
21661;SDS011;10992;48.170;8.596;2022-12-18T09:48:28;70.22;;;31.27;;
21661;SDS011;10992;48.170;8.596;2022-12-18T09:51:02;69.93;;;30.73;;
21661;SDS011;10992;48.170;8.596;2022-12-18T09:53:37;72.75;;;30.88;;
21661;SDS011;10992;48.170;8.596;2022-12-18T09:56:09;73.97;;;30.67;;
21661;SDS011;10992;48.170;8.596;2022-12-18T10:01:29;80.97;;;32.40;;
21661;SDS011;10992;48.170;8.596;2022-12-18T10:04:09;63.33;;;29.42;;
21661;SDS011;10992;48.170;8.596;2022-12-18T10:14:48;62.47;;;26.42;;
21661;SDS011;10992;48.170;8.596;2022-12-18T10:20:02;70.15;;;29.58;;
21661;SDS011;10992;48.170;8.596;2022-12-18T10:27:45;67.95;;;27.75;;
21661;SDS011;10992;48.170;8.596;2022-12-18T10:30:13;60.47;;;29.17;;
21661;SDS011;10992;48.170;8.596;2022-12-18T10:32:42;66.68;;;30.15;;
21661;SDS011;10992;48.170;8.596;2022-12-18T10:35:27;67.55;;;30.15;;
21661;SDS011;10992;48.170;8.596;2022-12-18T10:43:29;60.67;;;28.15;;
21661;SDS011;10992;48.170;8.596;2022-12-18T10:48:32;67.78;;;29.73;;
21661;SDS011;10992;48.170;8.596;2022-12-18T10:51:06;66.28;;;30.63;;
21661;SDS011;10992;48.170;8.596;2022-12-18T10:53:39;66.38;;;29.30;;
21661;SDS011;10992;48.170;8.596;2022-12-18T10:56:08;62.15;;;29.65;;
21661;SDS011;10992;48.170;8.596;2022-12-18T10:58:36;72.63;;;31.90;;
21661;SDS011;10992;48.170;8.596;2022-12-18T11:01:10;67.40;;;29.95;;
21661;SDS011;10992;48.170;8.596;2022-12-18T11:03:43;63.25;;;30.08;;
21661;SDS011;10992;48.170;8.596;2022-12-18T11:06:16;64.30;;;29.92;;
21661;SDS011;10992;48.170;8.596;2022-12-18T11:08:56;57.05;;;28.30;;
21661;SDS011;10992;48.170;8.596;2022-12-18T11:11:25;64.32;;;29.48;;
21661;SDS011;10992;48.170;8.596;2022-12-18T11:13:56;62.75;;;29.35;;
21661;SDS011;10992;48.170;8.596;2022-12-18T11:16:30;66.25;;;30.25;;
21661;SDS011;10992;48.170;8.596;2022-12-18T11:22:00;61.20;;;30.00;;
21661;SDS011;10992;48.170;8.596;2022-12-18T11:24:31;58.90;;;28.75;;
21661;SDS011;10992;48.170;8.596;2022-12-18T11:27:04;59.35;;;28.58;;
21661;SDS011;10992;48.170;8.596;2022-12-18T11:29:33;62.38;;;29.60;;
21661;SDS011;10992;48.170;8.596;2022-12-18T11:34:42;61.60;;;30.10;;
21661;SDS011;10992;48.170;8.596;2022-12-18T11:37:13;59.60;;;31.13;;
21661;SDS011;10992;48.170;8.596;2022-12-18T11:39:42;66.38;;;32.13;;
21661;SDS011;10992;48.170;8.596;2022-12-18T11:42:24;64.75;;;30.98;;
21661;SDS011;10992;48.170;8.596;2022-12-18T11:52:57;61.03;;;28.15;;
21661;SDS011;10992;48.170;8.596;2022-12-18T11:55:37;68.72;;;31.77;;
21661;SDS011;10992;48.170;8.596;2022-12-18T12:06:31;61.75;;;30.60;;
21661;SDS011;10992;48.170;8.596;2022-12-18T12:20:22;62.45;;;30.45;;
21661;SDS011;10992;48.170;8.596;2022-12-18T12:23:04;59.42;;;30.48;;
21661;SDS011;10992;48.170;8.596;2022-12-18T12:25:46;67.20;;;31.10;;
21661;SDS011;10992;48.170;8.596;2022-12-18T12:36:41;64.68;;;30.83;;
21661;SDS011;10992;48.170;8.596;2022-12-18T12:39:30;64.65;;;31.30;;
21661;SDS011;10992;48.170;8.596;2022-12-18T12:42:09;63.05;;;31.17;;
21661;SDS011;10992;48.170;8.596;2022-12-18T12:45:00;63.05;;;29.90;;
21661;SDS011;10992;48.170;8.596;2022-12-18T12:47:31;64.88;;;31.45;;
21661;SDS011;10992;48.170;8.596;2022-12-18T12:50:12;68.72;;;33.08;;
21661;SDS011;10992;48.170;8.596;2022-12-18T12:52:44;68.40;;;32.83;;
21661;SDS011;10992;48.170;8.596;2022-12-18T12:55:21;72.68;;;38.67;;
21661;SDS011;10992;48.170;8.596;2022-12-18T13:09:15;76.45;;;39.00;;
21661;SDS011;10992;48.170;8.596;2022-12-18T13:11:43;72.40;;;38.13;;
21661;SDS011;10992;48.170;8.596;2022-12-18T13:14:39;76.88;;;35.60;;
21661;SDS011;10992;48.170;8.596;2022-12-18T13:17:14;79.15;;;36.25;;
21661;SDS011;10992;48.170;8.596;2022-12-18T13:20:02;73.20;;;36.50;;
21661;SDS011;10992;48.170;8.596;2022-12-18T13:22:31;81.57;;;36.38;;
21661;SDS011;10992;48.170;8.596;2022-12-18T13:40:59;72.00;;;34.95;;
21661;SDS011;10992;48.170;8.596;2022-12-18T13:46:19;70.80;;;33.17;;
21661;SDS011;10992;48.170;8.596;2022-12-18T13:51:24;70.93;;;33.65;;
21661;SDS011;10992;48.170;8.596;2022-12-18T13:54:01;67.47;;;33.30;;
21661;SDS011;10992;48.170;8.596;2022-12-18T13:56:42;68.85;;;34.88;;
21661;SDS011;10992;48.170;8.596;2022-12-18T13:59:14;76.32;;;35.00;;
21661;SDS011;10992;48.170;8.596;2022-12-18T14:01:44;73.20;;;35.40;;
21661;SDS011;10992;48.170;8.596;2022-12-18T14:04:24;71.57;;;33.03;;
21661;SDS011;10992;48.170;8.596;2022-12-18T14:06:57;76.70;;;35.28;;
21661;SDS011;10992;48.170;8.596;2022-12-18T14:09:30;73.80;;;34.80;;
21661;SDS011;10992;48.170;8.596;2022-12-18T14:12:02;75.78;;;35.28;;
21661;SDS011;10992;48.170;8.596;2022-12-18T14:14:49;76.70;;;33.20;;
21661;SDS011;10992;48.170;8.596;2022-12-18T14:17:20;75.90;;;34.80;;
21661;SDS011;10992;48.170;8.596;2022-12-18T14:19:50;81.80;;;38.75;;
21661;SDS011;10992;48.170;8.596;2022-12-18T14:22:21;83.40;;;37.92;;
21661;SDS011;10992;48.170;8.596;2022-12-18T14:27:47;83.05;;;38.13;;
21661;SDS011;10992;48.170;8.596;2022-12-18T14:30:40;83.45;;;38.30;;
21661;SDS011;10992;48.170;8.596;2022-12-18T14:33:15;83.35;;;36.38;;
21661;SDS011;10992;48.170;8.596;2022-12-18T14:38:30;83.47;;;37.83;;
21661;SDS011;10992;48.170;8.596;2022-12-18T14:41:14;80.55;;;36.35;;
21661;SDS011;10992;48.170;8.596;2022-12-18T14:43:43;82.55;;;36.40;;
21661;SDS011;10992;48.170;8.596;2022-12-18T14:49:03;82.93;;;37.92;;
21661;SDS011;10992;48.170;8.596;2022-12-18T14:52:37;90.32;;;38.30;;
21661;SDS011;10992;48.170;8.596;2022-12-18T14:54:53;83.93;;;35.80;;
21661;SDS011;10992;48.170;8.596;2022-12-18T14:57:24;82.25;;;34.90;;
21661;SDS011;10992;48.170;8.596;2022-12-18T15:00:03;81.40;;;34.78;;
21661;SDS011;10992;48.170;8.596;2022-12-18T15:02:41;86.32;;;36.85;;
21661;SDS011;10992;48.170;8.596;2022-12-18T15:07:40;85.68;;;35.80;;
21661;SDS011;10992;48.170;8.596;2022-12-18T15:10:27;91.32;;;39.50;;
21661;SDS011;10992;48.170;8.596;2022-12-18T15:17:59;77.90;;;35.88;;
21661;SDS011;10992;48.170;8.596;2022-12-18T15:20:29;84.57;;;36.67;;
21661;SDS011;10992;48.170;8.596;2022-12-18T15:22:59;97.57;;;40.80;;
21661;SDS011;10992;48.170;8.596;2022-12-18T15:25:31;101.70;;;44.00;;
21661;SDS011;10992;48.170;8.596;2022-12-18T15:28:03;93.68;;;42.25;;
21661;SDS011;10992;48.170;8.596;2022-12-18T15:30:41;99.85;;;41.40;;
21661;SDS011;10992;48.170;8.596;2022-12-18T15:33:45;99.32;;;39.17;;
21661;SDS011;10992;48.170;8.596;2022-12-18T15:36:19;100.72;;;42.40;;
21661;SDS011;10992;48.170;8.596;2022-12-18T15:38:52;96.47;;;41.03;;
21661;SDS011;10992;48.170;8.596;2022-12-18T15:41:30;95.25;;;43.05;;
21661;SDS011;10992;48.170;8.596;2022-12-18T15:44:00;99.78;;;40.03;;
21661;SDS011;10992;48.170;8.596;2022-12-18T15:46:27;96.50;;;40.60;;
21661;SDS011;10992;48.170;8.596;2022-12-18T15:48:54;93.50;;;39.33;;
21661;SDS011;10992;48.170;8.596;2022-12-18T15:54:13;100.72;;;41.90;;
21661;SDS011;10992;48.170;8.596;2022-12-18T15:56:42;90.03;;;38.58;;
21661;SDS011;10992;48.170;8.596;2022-12-18T15:59:28;100.68;;;39.60;;
21661;SDS011;10992;48.170;8.596;2022-12-18T16:01:55;101.25;;;42.65;;
21661;SDS011;10992;48.170;8.596;2022-12-18T16:04:23;98.57;;;39.25;;
21661;SDS011;10992;48.170;8.596;2022-12-18T16:06:50;91.10;;;39.25;;
21661;SDS011;10992;48.170;8.596;2022-12-18T16:09:40;91.63;;;38.80;;
21661;SDS011;10992;48.170;8.596;2022-12-18T16:12:15;93.95;;;38.78;;
21661;SDS011;10992;48.170;8.596;2022-12-18T16:14:47;100.30;;;41.60;;
21661;SDS011;10992;48.170;8.596;2022-12-18T16:17:14;102.13;;;42.95;;
21661;SDS011;10992;48.170;8.596;2022-12-18T16:19:41;96.22;;;38.33;;
21661;SDS011;10992;48.170;8.596;2022-12-18T16:22:18;80.55;;;31.55;;
21661;SDS011;10992;48.170;8.596;2022-12-18T16:24:50;89.60;;;39.17;;
21661;SDS011;10992;48.170;8.596;2022-12-18T16:27:19;96.93;;;39.55;;
21661;SDS011;10992;48.170;8.596;2022-12-18T16:29:46;92.93;;;37.60;;
21661;SDS011;10992;48.170;8.596;2022-12-18T16:32:16;93.78;;;39.70;;
21661;SDS011;10992;48.170;8.596;2022-12-18T16:34:44;96.97;;;39.10;;
21661;SDS011;10992;48.170;8.596;2022-12-18T16:37:13;94.70;;;39.42;;
21661;SDS011;10992;48.170;8.596;2022-12-18T16:39:41;90.63;;;38.78;;
21661;SDS011;10992;48.170;8.596;2022-12-18T16:42:13;89.78;;;36.33;;
21661;SDS011;10992;48.170;8.596;2022-12-18T16:44:43;96.15;;;39.85;;
21661;SDS011;10992;48.170;8.596;2022-12-18T16:47:11;87.40;;;35.97;;
21661;SDS011;10992;48.170;8.596;2022-12-18T16:49:41;101.82;;;39.55;;
21661;SDS011;10992;48.170;8.596;2022-12-18T16:52:11;97.60;;;41.40;;
21661;SDS011;10992;48.170;8.596;2022-12-18T16:54:39;94.78;;;38.70;;
21661;SDS011;10992;48.170;8.596;2022-12-18T16:57:06;102.85;;;46.45;;
21661;SDS011;10992;48.170;8.596;2022-12-18T16:59:33;99.00;;;42.25;;
21661;SDS011;10992;48.170;8.596;2022-12-18T17:02:01;98.72;;;40.92;;
21661;SDS011;10992;48.170;8.596;2022-12-18T17:04:28;93.28;;;39.72;;
21661;SDS011;10992;48.170;8.596;2022-12-18T17:06:58;96.80;;;40.78;;
21661;SDS011;10992;48.170;8.596;2022-12-18T17:09:25;99.97;;;40.10;;
21661;SDS011;10992;48.170;8.596;2022-12-18T17:11:52;98.00;;;41.75;;
21661;SDS011;10992;48.170;8.596;2022-12-18T17:14:20;102.18;;;41.13;;
21661;SDS011;10992;48.170;8.596;2022-12-18T17:16:49;95.80;;;38.97;;
21661;SDS011;10992;48.170;8.596;2022-12-18T17:19:37;100.13;;;37.80;;
21661;SDS011;10992;48.170;8.596;2022-12-18T17:22:04;93.97;;;39.00;;